createdAt,value
2018-09-18T00:01:42.007Z,16.83
2018-09-18T00:04:11.871Z,16.80
2018-09-18T00:06:42.003Z,16.82
2018-09-18T00:09:12.231Z,16.71
2018-09-18T00:11:42.077Z,16.71
2018-09-18T00:14:11.902Z,16.70
2018-09-18T00:16:41.745Z,16.61
2018-09-18T00:19:11.525Z,16.53
2018-09-18T00:21:41.401Z,16.55
2018-09-18T00:24:11.477Z,16.65
2018-09-18T00:26:41.345Z,16.70
2018-09-18T00:29:12.051Z,16.73
2018-09-18T00:31:41.856Z,16.67
2018-09-18T00:34:11.648Z,16.66
2018-09-18T00:36:41.814Z,16.67
2018-09-18T00:39:11.736Z,16.64
2018-09-18T00:41:41.762Z,16.57
2018-09-18T00:44:11.578Z,16.63
2018-09-18T00:46:41.398Z,16.59
2018-09-18T00:49:11.302Z,16.57
2018-09-18T00:51:41.570Z,16.55
2018-09-18T00:54:11.396Z,16.40
2018-09-18T00:56:41.197Z,16.48
2018-09-18T00:59:11.019Z,16.41
2018-09-18T01:01:40.840Z,16.44
2018-09-18T01:04:11.416Z,16.24
2018-09-18T01:06:41.243Z,16.14
2018-09-18T01:09:11.894Z,16.19
2018-09-18T01:11:41.724Z,16.03
2018-09-18T01:14:11.620Z,16.05
2018-09-18T01:16:41.798Z,16.06
2018-09-18T01:19:11.737Z,16.03
2018-09-18T01:21:41.530Z,15.91
2018-09-18T01:24:11.343Z,16.04
2018-09-18T01:26:41.123Z,16.09
2018-09-18T01:29:11.289Z,16.03
2018-09-18T01:31:42.064Z,15.93
2018-09-18T01:34:11.901Z,15.91
2018-09-18T01:36:41.741Z,15.89
2018-09-18T01:39:11.964Z,15.91
2018-09-18T01:41:41.739Z,15.96
2018-09-18T01:44:11.612Z,15.91
2018-09-18T01:46:41.452Z,15.96
2018-09-18T01:49:12.192Z,16.02
2018-09-18T01:51:41.984Z,16.22
2018-09-18T01:54:11.853Z,16.02
2018-09-18T01:56:42.513Z,15.92
2018-09-18T01:59:12.396Z,15.88
2018-09-18T02:01:42.548Z,15.84
2018-09-18T02:04:12.384Z,15.75
2018-09-18T02:06:42.284Z,15.76
2018-09-18T02:09:12.376Z,15.72
2018-09-18T02:11:42.418Z,15.77
2018-09-18T02:14:12.246Z,15.81
2018-09-18T02:16:42.373Z,15.83
2018-09-18T02:19:12.802Z,15.73
2018-09-18T02:21:42.770Z,15.76
2018-09-18T02:24:12.888Z,15.90
2018-09-18T02:26:42.729Z,15.77
2018-09-18T02:29:12.524Z,15.67
2018-09-18T02:31:42.619Z,15.73
2018-09-18T02:34:12.558Z,15.60
2018-09-18T02:36:42.395Z,15.70
2018-09-18T02:39:13.309Z,15.51
2018-09-18T02:41:43.958Z,15.49
2018-09-18T02:44:14.210Z,15.56
2018-09-18T02:46:44.471Z,15.55
2018-09-18T02:49:15.580Z,15.46
2018-09-18T02:51:45.424Z,15.39
2018-09-18T02:54:15.284Z,15.54
2018-09-18T02:56:45.159Z,15.63
2018-09-18T02:59:15.244Z,15.51
2018-09-18T03:01:45.063Z,15.50
2018-09-18T03:04:15.637Z,15.57
2018-09-18T03:06:45.534Z,15.42
2018-09-18T03:09:15.333Z,15.38
2018-09-18T03:11:45.695Z,15.47
2018-09-18T03:14:15.963Z,15.37
2018-09-18T03:16:45.773Z,15.51
2018-09-18T03:19:15.631Z,15.45
2018-09-18T03:21:45.433Z,15.34
2018-09-18T03:24:15.276Z,15.21
2018-09-18T03:26:45.653Z,15.23
2018-09-18T03:29:15.425Z,15.32
2018-09-18T03:31:45.261Z,15.23
2018-09-18T03:34:15.133Z,15.17
2018-09-18T03:36:44.967Z,15.10
2018-09-18T03:39:14.996Z,15.01
2018-09-18T03:41:44.848Z,15.17
2018-09-18T03:44:14.711Z,15.18
2018-09-18T03:46:44.583Z,15.06
2018-09-18T03:49:14.728Z,15.09
2018-09-18T03:51:44.669Z,15.02
2018-09-18T03:54:14.739Z,14.99
2018-09-18T03:56:44.839Z,15.04
2018-09-18T03:59:14.653Z,14.90
2018-09-18T04:01:44.511Z,14.88
2018-09-18T04:04:15.054Z,14.95
2018-09-18T04:06:44.883Z,14.87
2018-09-18T04:09:14.695Z,14.78
2018-09-18T04:11:44.925Z,14.81
2018-09-18T04:14:14.775Z,14.82
2018-09-18T04:16:45.718Z,14.90
2018-09-18T04:19:15.570Z,14.90
2018-09-18T04:21:46.245Z,15.02
2018-09-18T04:24:16.489Z,15.11
2018-09-18T04:26:46.357Z,15.13
2018-09-18T04:29:16.635Z,15.11
2018-09-18T04:31:48.238Z,15.06
2018-09-18T04:34:18.068Z,15.00
2018-09-18T04:36:47.927Z,14.85
2018-09-18T04:39:17.881Z,14.84
2018-09-18T04:41:47.693Z,14.66
2018-09-18T04:44:17.495Z,14.63
2018-09-18T04:46:47.324Z,14.74
2018-09-18T04:50:11.304Z,14.77
2018-09-18T04:52:41.076Z,14.88
2018-09-18T04:55:10.944Z,14.92
2018-09-18T04:57:40.776Z,15.02
2018-09-18T05:00:11.160Z,14.95
2018-09-18T05:02:41.002Z,14.86
2018-09-18T05:05:10.966Z,14.79
2018-09-18T05:07:40.854Z,14.92
2018-09-18T05:10:10.658Z,14.81
2018-09-18T05:12:40.484Z,14.84
2018-09-18T05:15:10.624Z,14.87
2018-09-18T05:17:40.837Z,14.87
2018-09-18T05:20:10.662Z,14.95
2018-09-18T05:22:40.546Z,14.94
2018-09-18T05:25:10.345Z,15.00
2018-09-18T05:27:41.052Z,15.09
2018-09-18T05:30:10.873Z,15.24
2018-09-18T05:32:40.716Z,15.24
2018-09-18T05:35:11.538Z,15.31
2018-09-18T05:37:41.348Z,15.35
2018-09-18T05:40:11.164Z,15.34
2018-09-18T05:42:41.208Z,15.09
2018-09-18T05:45:11.390Z,15.12
2018-09-18T05:47:41.196Z,15.15
2018-09-18T05:50:11.074Z,15.22
2018-09-18T05:52:41.230Z,15.23
2018-09-18T05:55:11.071Z,15.27
2018-09-18T05:57:42.020Z,15.34
2018-09-18T06:00:11.870Z,15.43
2018-09-18T06:02:41.739Z,15.55
2018-09-18T06:05:11.767Z,15.70
2018-09-18T06:07:41.644Z,15.64
2018-09-18T06:10:11.498Z,15.61
2018-09-18T06:12:41.626Z,15.60
2018-09-18T06:15:11.458Z,15.65
2018-09-18T06:17:41.256Z,15.84
2018-09-18T06:20:11.056Z,16.02
2018-09-18T06:22:40.885Z,16.14
2018-09-18T06:25:10.770Z,16.15
2018-09-18T06:27:40.576Z,16.19
2018-09-18T06:30:10.790Z,16.20
2018-09-18T06:32:41.009Z,16.16
2018-09-18T06:35:10.919Z,16.24
2018-09-18T06:37:41.026Z,16.44
2018-09-18T06:40:11.710Z,16.53
2018-09-18T06:42:41.822Z,16.61
2018-09-18T06:45:12.724Z,16.67
2018-09-18T06:47:43.257Z,16.86
2018-09-18T06:50:13.312Z,16.99
2018-09-18T06:52:43.204Z,17.54
2018-09-18T06:55:13.180Z,18.70
2018-09-18T06:57:43.779Z,19.98
2018-09-18T07:00:14.932Z,20.61
2018-09-18T07:02:45.874Z,21.82
2018-09-18T07:05:16.242Z,22.98
2018-09-18T07:07:46.726Z,23.65
2018-09-18T07:10:17.396Z,24.76
2018-09-18T07:12:47.770Z,25.00
2018-09-18T07:15:18.158Z,24.52
2018-09-18T07:17:48.565Z,25.22
2018-09-18T07:20:19.018Z,25.47
2018-09-18T07:22:49.438Z,26.15
2018-09-18T07:25:19.842Z,26.49
2018-09-18T07:27:50.558Z,27.12
2018-09-18T07:30:20.906Z,27.76
2018-09-18T07:32:52.332Z,28.36
2018-09-18T07:36:52.092Z,27.50
2018-09-18T07:39:22.462Z,24.37
2018-09-18T07:41:52.853Z,22.63
2018-09-18T07:44:23.228Z,21.76
2018-09-18T07:46:53.644Z,21.15
2018-09-18T07:49:24.129Z,20.32
2018-09-18T07:51:54.542Z,19.64
2018-09-18T07:54:24.966Z,19.94
2018-09-18T07:56:55.397Z,20.00
2018-09-18T07:59:26.167Z,19.81
2018-09-18T08:01:56.563Z,20.19
2018-09-18T08:04:27.249Z,21.18
2018-09-18T08:06:57.677Z,22.31
2018-09-18T08:09:28.215Z,23.51
2018-09-18T08:11:59.546Z,24.38
2018-09-18T08:14:29.908Z,25.13
2018-09-18T08:17:00.641Z,25.80
2018-09-18T08:19:31.120Z,25.60
2018-09-18T08:22:01.734Z,25.41
2018-09-18T08:24:32.127Z,25.34
2018-09-18T08:27:02.864Z,25.30
2018-09-18T08:29:33.669Z,24.49
2018-09-18T08:32:04.071Z,23.38
2018-09-18T08:34:34.555Z,22.63
2018-09-18T08:37:04.957Z,21.83
2018-09-18T08:39:35.676Z,21.91
2018-09-18T08:42:06.231Z,21.68
2018-09-18T08:44:37.086Z,21.77
2018-09-18T08:47:07.635Z,22.01
2018-09-18T08:49:38.337Z,22.44
2018-09-18T08:52:09.230Z,22.86
2018-09-18T08:54:39.767Z,22.96
2018-09-18T08:57:10.171Z,23.33
2018-09-18T08:59:40.564Z,23.41
2018-09-18T09:02:11.286Z,23.64
2018-09-18T09:04:41.992Z,23.36
2018-09-18T09:07:12.904Z,23.30
2018-09-18T09:09:43.492Z,23.02
2018-09-18T09:12:14.606Z,22.78
2018-09-18T09:14:45.062Z,22.72
2018-09-18T09:17:16.167Z,22.46
2018-09-18T09:19:47.598Z,22.45
2018-09-18T09:22:18.591Z,22.60
2018-09-18T09:24:49.653Z,22.59
2018-09-18T09:27:20.310Z,22.58
2018-09-18T09:29:50.743Z,22.93
2018-09-18T09:32:21.358Z,22.96
2018-09-18T09:34:52.449Z,22.95
2018-09-18T09:37:23.302Z,23.04
2018-09-18T09:39:53.719Z,22.95
2018-09-18T09:42:24.547Z,23.03
2018-09-18T09:44:55.165Z,22.92
2018-09-18T09:47:25.747Z,22.90
2018-09-18T09:49:56.545Z,23.08
2018-09-18T09:52:26.921Z,23.08
2018-09-18T09:54:57.297Z,23.09
2018-09-18T09:57:27.908Z,23.22
2018-09-18T09:59:58.290Z,23.23
2018-09-18T10:02:29.622Z,23.13
2018-09-18T10:05:00.030Z,23.21
2018-09-18T10:07:30.480Z,23.29
2018-09-18T10:10:01.420Z,23.22
2018-09-18T10:12:32.416Z,23.07
2018-09-18T10:15:02.944Z,22.97
2018-09-18T10:17:33.317Z,22.79
2018-09-18T10:20:04.412Z,22.83
2018-09-18T10:22:35.368Z,22.81
2018-09-18T10:25:06.247Z,22.84
2018-09-18T10:27:36.783Z,22.98
2018-09-18T10:30:08.388Z,23.02
2018-09-18T10:33:13.666Z,22.92
2018-09-18T10:35:44.262Z,22.82
2018-09-18T10:38:14.932Z,22.87
2018-09-18T10:40:45.532Z,22.96
2018-09-18T10:43:16.066Z,22.97
2018-09-18T10:45:46.914Z,22.97
2018-09-18T10:48:17.426Z,23.05
2018-09-18T10:50:47.790Z,23.01
2018-09-18T10:53:18.564Z,23.14
2018-09-18T10:55:49.366Z,23.07
2018-09-18T10:58:19.876Z,23.30
2018-09-18T11:00:50.264Z,23.46
2018-09-18T11:03:20.851Z,23.52
2018-09-18T11:05:51.545Z,23.74
2018-09-18T11:08:22.759Z,23.86
2018-09-18T11:10:53.574Z,23.82
2018-09-18T11:13:24.164Z,23.65
2018-09-18T11:15:54.649Z,23.68
2018-09-18T11:18:25.925Z,23.68
2018-09-18T11:20:56.690Z,23.49
2018-09-18T11:23:27.629Z,23.57
2018-09-18T11:25:58.615Z,23.59
2018-09-18T11:28:29.467Z,23.66
2018-09-18T11:31:00.267Z,23.66
2018-09-18T11:33:30.696Z,23.67
2018-09-18T11:36:01.375Z,23.66
2018-09-18T11:38:32.054Z,23.55
2018-09-18T11:41:02.446Z,23.38
2018-09-18T11:43:33.076Z,23.31
2018-09-18T11:46:03.962Z,23.24
2018-09-18T11:48:34.665Z,23.08
2018-09-18T11:51:05.088Z,23.05
2018-09-18T11:53:35.497Z,23.14
2018-09-18T11:56:05.947Z,23.21
2018-09-18T11:58:36.735Z,23.31
2018-09-18T12:01:07.466Z,23.39
2018-09-18T12:03:37.811Z,23.54
2018-09-18T12:06:08.275Z,23.64
2018-09-18T12:08:39.000Z,23.74
2018-09-18T12:11:10.274Z,24.00
2018-09-18T12:13:41.057Z,24.28
2018-09-18T12:16:11.554Z,24.62
2018-09-18T12:18:41.942Z,24.93
2018-09-18T12:21:12.605Z,25.20
2018-09-18T12:23:43.006Z,25.21
2018-09-18T12:26:13.553Z,24.97
2018-09-18T12:28:43.970Z,24.73
2018-09-18T12:31:14.519Z,24.87
2018-09-18T12:33:45.433Z,25.05
2018-09-18T12:36:15.863Z,25.17
2018-09-18T12:38:46.633Z,25.28
2018-09-18T12:41:17.585Z,25.21
2018-09-18T12:43:48.550Z,25.53
2018-09-18T12:46:19.277Z,25.74
2018-09-18T12:48:49.686Z,25.83
2018-09-18T12:51:20.252Z,25.66
2018-09-18T12:53:50.722Z,25.71
2018-09-18T12:56:21.241Z,25.90
2018-09-18T12:58:52.038Z,26.20
2018-09-18T13:01:22.655Z,26.37
2018-09-18T13:03:52.995Z,26.63
2018-09-18T13:06:23.806Z,26.79
2018-09-18T13:08:54.819Z,26.76
2018-09-18T13:11:25.158Z,26.69
2018-09-18T13:13:55.580Z,26.83
2018-09-18T13:16:26.127Z,26.86
2018-09-18T13:18:56.983Z,26.78
2018-09-18T13:21:28.141Z,27.05
2018-09-18T13:23:58.929Z,27.04
2018-09-18T13:26:29.058Z,27.22
2018-09-18T13:28:59.461Z,27.16
2018-09-18T13:31:31.010Z,27.15
2018-09-18T13:34:01.590Z,27.20
2018-09-18T13:36:32.292Z,27.11
2018-09-18T13:39:02.989Z,27.04
2018-09-18T13:41:33.371Z,27.05
2018-09-18T13:44:03.721Z,27.07
2018-09-18T13:46:33.919Z,27.11
2018-09-18T13:49:04.265Z,27.19
2018-09-18T13:51:35.455Z,27.28
2018-09-18T13:54:06.340Z,26.99
2018-09-18T13:56:36.828Z,27.11
2018-09-18T13:59:07.065Z,27.09
2018-09-18T14:01:37.746Z,27.05
2018-09-18T14:04:08.817Z,27.13
2018-09-18T14:06:39.084Z,27.24
2018-09-18T14:09:10.025Z,27.30
2018-09-18T14:11:40.221Z,27.27
2018-09-18T14:14:10.648Z,27.31
2018-09-18T14:16:41.014Z,27.31
2018-09-18T14:19:11.038Z,27.30
2018-09-18T14:21:41.278Z,27.28
2018-09-18T14:24:11.377Z,27.18
2018-09-18T14:26:41.954Z,27.14
2018-09-18T14:29:12.162Z,27.18
2018-09-18T14:31:42.810Z,26.99
2018-09-18T14:34:13.187Z,26.73
2018-09-18T14:36:43.958Z,26.76
2018-09-18T14:39:14.328Z,26.77
2018-09-18T14:41:44.684Z,26.90
2018-09-18T14:44:15.231Z,27.06
2018-09-18T14:46:45.677Z,26.87
2018-09-18T14:49:16.073Z,26.74
2018-09-18T14:51:46.446Z,26.72
2018-09-18T14:54:16.852Z,26.81
2018-09-18T14:56:47.744Z,26.78
2018-09-18T14:59:18.329Z,26.75
2018-09-18T15:01:49.719Z,26.72
2018-09-18T15:04:20.183Z,26.60
2018-09-18T15:06:50.519Z,26.75
2018-09-18T15:09:22.139Z,26.80
2018-09-18T15:11:53.474Z,26.75
2018-09-18T15:14:23.936Z,26.70
2018-09-18T15:16:55.239Z,26.65
2018-09-18T15:19:25.828Z,26.75
2018-09-18T15:21:56.467Z,26.76
2018-09-18T15:24:27.106Z,26.72
2018-09-18T15:26:57.582Z,26.72
2018-09-18T15:29:27.948Z,26.67
2018-09-18T15:31:58.436Z,26.69
2018-09-18T15:34:29.362Z,26.66
2018-09-18T15:36:59.744Z,26.50
2018-09-18T15:39:30.321Z,26.46
2018-09-18T15:42:00.895Z,26.45
2018-09-18T15:44:31.308Z,26.37
2018-09-18T15:47:02.052Z,26.27
2018-09-18T15:49:32.478Z,26.25
2018-09-18T15:52:03.918Z,26.25
2018-09-18T15:54:34.730Z,26.25
2018-09-18T15:57:05.634Z,26.20
2018-09-18T15:59:36.071Z,26.17
2018-09-18T16:02:06.777Z,26.07
2018-09-18T16:04:37.368Z,26.07
2018-09-18T16:07:07.802Z,25.97
2018-09-18T16:09:38.290Z,25.81
2018-09-18T16:12:08.878Z,25.86
2018-09-18T16:14:39.301Z,25.67
2018-09-18T16:17:09.868Z,25.51
2018-09-18T16:19:40.267Z,25.45
2018-09-18T16:22:10.656Z,25.34
2018-09-18T16:24:41.087Z,25.28
2018-09-18T16:27:11.706Z,25.20
2018-09-18T16:29:42.128Z,25.16
2018-09-18T16:32:12.724Z,24.94
2018-09-18T16:34:43.115Z,24.72
2018-09-18T16:37:13.500Z,24.52
2018-09-18T16:39:43.960Z,24.35
2018-09-18T16:42:14.442Z,24.28
2018-09-18T16:44:44.966Z,24.26
2018-09-18T16:47:15.692Z,24.28
2018-09-18T16:49:46.164Z,24.33
2018-09-18T16:52:16.616Z,24.25
2018-09-18T16:54:47.208Z,24.23
2018-09-18T16:57:17.854Z,24.25
2018-09-18T16:59:48.271Z,24.23
2018-09-18T17:02:18.755Z,24.07
2018-09-18T17:04:49.290Z,23.99
2018-09-18T17:07:19.978Z,23.84
2018-09-18T17:09:50.432Z,23.73
2018-09-18T17:12:21.265Z,23.60
2018-09-18T17:14:51.796Z,23.50
2018-09-18T17:17:22.194Z,23.40
2018-09-18T17:19:52.600Z,23.32
2018-09-18T17:22:23.126Z,23.28
2018-09-18T17:24:53.740Z,23.22
2018-09-18T17:27:24.179Z,23.08
2018-09-18T17:29:55.595Z,22.95
2018-09-18T17:32:26.324Z,22.84
2018-09-18T17:34:56.998Z,22.72
2018-09-18T17:37:27.522Z,22.62
2018-09-18T17:39:58.403Z,22.52
2018-09-18T17:42:29.294Z,22.43
2018-09-18T17:44:59.962Z,22.34
2018-09-18T17:47:30.431Z,22.20
2018-09-18T17:50:01.003Z,22.12
2018-09-18T17:52:31.760Z,22.06
2018-09-18T17:55:02.308Z,22.09
2018-09-18T17:57:33.017Z,22.08
2018-09-18T18:00:04.102Z,21.90
2018-09-18T18:02:34.667Z,21.83
2018-09-18T18:05:05.140Z,21.80
2018-09-18T18:07:35.815Z,21.77
2018-09-18T18:11:08.438Z,21.64
2018-09-18T18:13:38.858Z,21.42
2018-09-18T18:16:09.253Z,21.24
2018-09-18T18:18:40.092Z,21.12
2018-09-18T18:21:10.505Z,21.02
2018-09-18T18:23:41.180Z,21.02
2018-09-18T18:26:11.694Z,20.98
2018-09-18T18:28:42.246Z,20.93
2018-09-18T18:32:09.903Z,20.85
2018-09-18T18:34:40.383Z,20.81
2018-09-18T18:37:10.850Z,20.81
2018-09-18T18:39:41.311Z,20.90
2018-09-18T18:42:12.564Z,20.76
2018-09-18T18:44:43.208Z,20.68
2018-09-18T18:47:13.671Z,20.62
2018-09-18T18:49:44.135Z,20.58
2018-09-18T18:52:15.316Z,20.49
2018-09-18T18:54:45.791Z,20.46
2018-09-18T18:57:16.579Z,20.42
2018-09-18T18:59:47.631Z,20.41
2018-09-18T19:02:18.008Z,20.36
2018-09-18T19:04:48.413Z,20.40
2018-09-18T19:07:18.898Z,20.46
2018-09-18T19:09:49.300Z,20.61
2018-09-18T19:12:20.107Z,20.49
2018-09-18T19:14:50.633Z,20.44
2018-09-18T19:17:20.984Z,20.30
2018-09-18T19:19:51.786Z,20.26
2018-09-18T19:22:22.189Z,20.08
2018-09-18T19:24:52.592Z,20.06
2018-09-18T19:27:23.027Z,19.92
2018-09-18T19:29:53.647Z,19.94
2018-09-18T19:32:24.018Z,19.95
2018-09-18T19:34:54.675Z,19.95
2018-09-18T19:37:25.056Z,19.91
2018-09-18T19:39:55.915Z,19.84
2018-09-18T19:42:26.440Z,19.85
2018-09-18T19:44:56.848Z,19.86
2018-09-18T19:47:27.458Z,19.84
2018-09-18T19:49:57.902Z,19.75
2018-09-18T19:52:28.317Z,19.67
2018-09-18T19:54:58.718Z,19.63
2018-09-18T19:57:29.142Z,19.69
2018-09-18T19:59:59.564Z,19.70
2018-09-18T20:02:29.988Z,19.68
2018-09-18T20:05:00.518Z,19.75
2018-09-18T20:07:30.956Z,19.83
2018-09-18T20:10:01.397Z,19.94
2018-09-18T20:12:32.194Z,20.05
2018-09-18T20:15:02.651Z,19.95
2018-09-18T20:17:33.330Z,19.76
2018-09-18T20:20:03.742Z,19.55
2018-09-18T20:22:35.004Z,19.38
2018-09-18T20:25:05.668Z,19.21
2018-09-18T20:27:36.431Z,19.12
2018-09-18T20:30:07.193Z,18.89
2018-09-18T20:32:37.606Z,18.78
2018-09-18T20:35:07.508Z,18.68
2018-09-18T20:37:37.917Z,18.52
2018-09-18T20:40:07.999Z,18.11
2018-09-18T20:42:38.079Z,17.83
2018-09-18T20:45:08.091Z,17.90
2018-09-18T20:47:37.918Z,17.81
2018-09-18T20:50:08.299Z,17.82
2018-09-18T20:52:38.195Z,17.88
2018-09-18T20:55:09.576Z,17.94
2018-09-18T20:57:39.375Z,17.98
2018-09-18T21:00:09.562Z,17.97
2018-09-18T21:02:39.400Z,17.88
2018-09-18T21:05:09.679Z,17.85
2018-09-18T21:07:39.928Z,17.74
2018-09-18T21:10:10.450Z,17.52
2018-09-18T21:12:40.516Z,17.15
2018-09-18T21:15:10.358Z,16.89
2018-09-18T21:17:40.135Z,16.95
2018-09-18T21:20:10.091Z,16.48
2018-09-18T21:22:39.935Z,16.38
2018-09-18T21:26:17.160Z,16.47
2018-09-18T21:28:47.346Z,16.64
2018-09-18T21:31:17.361Z,16.80
2018-09-18T21:33:47.200Z,17.06
2018-09-18T21:36:17.004Z,17.20
2018-09-18T21:38:46.799Z,16.95
2018-09-18T21:41:16.600Z,16.95
2018-09-18T21:43:46.720Z,17.06
2018-09-18T21:46:16.569Z,17.00
2018-09-18T21:48:46.738Z,17.07
2018-09-18T21:51:16.597Z,17.11
2018-09-18T21:53:46.780Z,17.28
2018-09-18T21:56:16.617Z,17.46
2018-09-18T21:58:47.038Z,17.37
2018-09-18T22:01:16.863Z,17.38
2018-09-18T22:03:47.480Z,17.04
2018-09-18T22:06:17.396Z,17.07
2018-09-18T22:08:47.710Z,17.17
2018-09-18T22:11:17.588Z,17.10
2018-09-18T22:13:47.416Z,17.13
2018-09-18T22:16:17.273Z,16.99
2018-09-18T22:18:47.522Z,17.09
2018-09-18T22:21:17.591Z,17.13
2018-09-18T22:23:47.525Z,16.90
2018-09-18T22:26:17.460Z,16.73
2018-09-18T22:28:47.329Z,16.66
2018-09-18T22:31:17.435Z,16.83
2018-09-18T22:33:47.410Z,16.51
2018-09-18T22:36:17.387Z,16.33
2018-09-18T22:38:47.186Z,16.12
2018-09-18T22:41:16.988Z,16.07
2018-09-18T22:43:46.951Z,16.02
2018-09-18T22:46:16.768Z,16.20
2018-09-18T22:48:46.783Z,16.21
2018-09-18T22:51:16.629Z,16.27
2018-09-18T22:53:46.508Z,16.34
2018-09-18T22:56:16.366Z,16.28
2018-09-18T22:58:45.793Z,16.39
2018-09-18T23:01:15.778Z,16.49
2018-09-18T23:03:46.091Z,16.56
2018-09-18T23:06:16.564Z,16.56
2018-09-18T23:08:47.347Z,16.54
2018-09-18T23:11:17.679Z,16.54
2018-09-18T23:13:47.598Z,16.57
2018-09-18T23:16:17.375Z,16.70
2018-09-18T23:18:47.961Z,16.68
2018-09-18T23:21:17.942Z,16.65
2018-09-18T23:23:47.769Z,16.64
2018-09-18T23:26:18.298Z,16.55
2018-09-18T23:28:48.122Z,16.47
2018-09-18T23:31:18.016Z,16.49
2018-09-18T23:33:47.816Z,16.40
2018-09-18T23:36:17.615Z,16.28
2018-09-18T23:38:47.722Z,16.20
2018-09-18T23:41:17.908Z,16.24
2018-09-18T23:43:47.745Z,16.24
2018-09-18T23:46:18.111Z,16.28
2018-09-18T23:48:47.913Z,16.28
2018-09-18T23:51:17.719Z,16.13
2018-09-18T23:53:47.579Z,16.11
2018-09-18T23:56:18.182Z,15.98
2018-09-18T23:58:48.317Z,16.13
